BOE101 KBFI-CYEG
Flight info
| Callsign | BOE101 |
|---|---|
| Flight time | N/A |
| Altitude | 41000 |
| Route | ALPSE DCT YDC DCT NADPI DCT 523940N1145343W/N0494F400 530935N1145224W 534037N1145025W/N0494F410 535727N1143426W 540211N1141251W 540200N1134053W 535200N1125444W 533723N1123150W 531857N1122544W 525929N1122733W/N0496F400 524621N1123627W 523910N1130328W 523758N1134847W 523846N1143853W 525654N1143814W/N0497F410 525618N1141946W 525255N1134212W 525220N1131649W 524457N1122345W 523151N1122047W 521540N1122504W/N0498F400 520409N1123915W 514937N1125802W DCT 514419N1132305W OILRS2 |
| Aircraft | B77W/H-SDE1E2E3FGHIJ2J3J4J5M1RWXY/LB1D1 |
Departure
| Time | 2026-04-25 22:07 |
|---|---|
| Airport | King County International Airport - Boeing Field (KBFI) |
Arrival
| Time | N/A |
|---|---|
| Airport | Edmonton International Airport (CYEG) |
| Time | Latitude | Longitude | Altitude | Speed | Heading |
|---|---|---|---|---|---|
| 2026-04-25 21:40 | 47.54019 | -122.31485 | 27 ft | 0 kts | 182° |
| 2026-04-25 21:54 | 47.53997 | -122.31486 | 27 ft | 4 kts | 182° |
| 2026-04-25 21:55 | 47.53967 | -122.31471 | 27 ft | 4 kts | 143° |
| 2026-04-25 21:55 | 47.53949 | -122.31433 | 27 ft | 4 kts | 109° |
| 2026-04-25 21:55 | 47.53938 | -122.31395 | 27 ft | 3 kts | 134° |
| 2026-04-25 21:55 | 47.53914 | -122.31380 | 27 ft | 3 kts | 174° |
| 2026-04-25 21:56 | 47.53880 | -122.31381 | 27 ft | 5 kts | 166° |
| 2026-04-25 21:56 | 47.53858 | -122.31364 | 27 ft | 5 kts | 147° |
| 2026-04-25 21:56 | 47.53799 | -122.31310 | 27 ft | 7 kts | 148° |
| 2026-04-25 21:56 | 47.53752 | -122.31268 | 27 ft | 7 kts | 149° |
| 2026-04-25 21:57 | 47.53706 | -122.31226 | 27 ft | 7 kts | 148° |
| 2026-04-25 21:57 | 47.53678 | -122.31201 | 27 ft | 2 kts | 149° |
| 2026-04-25 21:57 | 47.53645 | -122.31168 | 26 ft | 7 kts | 146° |
| 2026-04-25 21:57 | 47.53606 | -122.31129 | 26 ft | 4 kts | 146° |
| 2026-04-25 21:58 | 47.53583 | -122.31108 | 26 ft | 6 kts | 151° |
| 2026-04-25 21:58 | 47.53537 | -122.31069 | 26 ft | 7 kts | 150° |
| 2026-04-25 21:58 | 47.53490 | -122.31029 | 26 ft | 7 kts | 150° |
| 2026-04-25 21:58 | 47.53444 | -122.30990 | 27 ft | 7 kts | 150° |
| 2026-04-25 21:59 | 47.53414 | -122.30965 | 27 ft | 2 kts | 150° |
| 2026-04-25 21:59 | 47.53381 | -122.30933 | 27 ft | 7 kts | 148° |
| 2026-04-25 21:59 | 47.53348 | -122.30903 | 27 ft | 3 kts | 148° |
| 2026-04-25 22:00 | 47.53318 | -122.30877 | 26 ft | 3 kts | 145° |
| 2026-04-25 22:00 | 47.53306 | -122.30842 | 27 ft | 3 kts | 98° |
| 2026-04-25 22:00 | 47.53311 | -122.30807 | 27 ft | 1 kts | 63° |
| 2026-04-25 22:00 | 47.53314 | -122.30798 | 27 ft | 0 kts | 60° |
| 2026-04-25 22:02 | 47.53330 | -122.30757 | 27 ft | 9 kts | 69° |
| 2026-04-25 22:02 | 47.53297 | -122.30649 | 27 ft | 14 kts | 152° |
| 2026-04-25 22:03 | 47.53208 | -122.30575 | 27 ft | 15 kts | 150° |
| 2026-04-25 22:03 | 47.53111 | -122.30492 | 27 ft | 17 kts | 150° |
| 2026-04-25 22:03 | 47.53000 | -122.30398 | 27 ft | 19 kts | 150° |
| 2026-04-25 22:03 | 47.52879 | -122.30296 | 27 ft | 21 kts | 150° |
| 2026-04-25 22:04 | 47.52746 | -122.30184 | 27 ft | 22 kts | 150° |
| 2026-04-25 22:04 | 47.52605 | -122.30064 | 28 ft | 23 kts | 150° |
| 2026-04-25 22:04 | 47.52457 | -122.29939 | 27 ft | 25 kts | 151° |
| 2026-04-25 22:04 | 47.52299 | -122.29807 | 27 ft | 26 kts | 150° |
| 2026-04-25 22:05 | 47.52134 | -122.29669 | 29 ft | 27 kts | 150° |
| 2026-04-25 22:05 | 47.51968 | -122.29533 | 30 ft | 26 kts | 151° |
| 2026-04-25 22:05 | 47.51883 | -122.29428 | 30 ft | 11 kts | 82° |
| 2026-04-25 22:05 | 47.51931 | -122.29356 | 32 ft | 9 kts | 1° |
| 2026-04-25 22:06 | 47.51978 | -122.29383 | 32 ft | 0 kts | 330° |
| 2026-04-25 22:06 | 47.52043 | -122.29438 | 31 ft | 46 kts | 330° |
| 2026-04-25 22:06 | 47.52600 | -122.29907 | 31 ft | 133 kts | 330° |
| 2026-04-25 22:06 | 47.53566 | -122.30706 | 333 ft | 178 kts | 332° |
| 2026-04-25 22:07 | 47.54666 | -122.31647 | 996 ft | 184 kts | 329° |
| 2026-04-25 22:07 | 47.55416 | -122.32289 | 1414 ft | 184 kts | 330° |
| 2026-04-25 22:07 | 47.56927 | -122.33584 | 2232 ft | 198 kts | 330° |
| 2026-04-25 22:07 | 47.58175 | -122.34608 | 2863 ft | 215 kts | 339° |
| 2026-04-25 22:08 | 47.59707 | -122.35066 | 3508 ft | 238 kts | 0° |
| 2026-04-25 22:08 | 47.61364 | -122.34591 | 4138 ft | 254 kts | 18° |
| 2026-04-25 22:08 | 47.63040 | -122.33724 | 4754 ft | 258 kts | 19° |
| 2026-04-25 22:08 | 47.64767 | -122.32867 | 5364 ft | 260 kts | 18° |
| 2026-04-25 22:09 | 47.66483 | -122.32051 | 5960 ft | 263 kts | 18° |
| 2026-04-25 22:09 | 47.68232 | -122.31230 | 6560 ft | 266 kts | 18° |
| 2026-04-25 22:09 | 47.69982 | -122.30411 | 7233 ft | 266 kts | 18° |
| 2026-04-25 22:09 | 47.71768 | -122.29574 | 7968 ft | 268 kts | 18° |
| 2026-04-25 22:10 | 47.73534 | -122.28745 | 8700 ft | 271 kts | 18° |
| 2026-04-25 22:10 | 47.75314 | -122.27910 | 9440 ft | 272 kts | 18° |
| 2026-04-25 22:10 | 47.77127 | -122.27058 | 10189 ft | 275 kts | 18° |
| 2026-04-25 22:10 | 47.78923 | -122.26214 | 10929 ft | 275 kts | 18° |
| 2026-04-25 22:11 | 47.80762 | -122.25349 | 11683 ft | 280 kts | 18° |
| 2026-04-25 22:11 | 47.82653 | -122.24459 | 12476 ft | 292 kts | 18° |
| 2026-04-25 22:11 | 47.84592 | -122.23545 | 13359 ft | 301 kts | 18° |
| 2026-04-25 22:11 | 47.86606 | -122.22595 | 14256 ft | 311 kts | 18° |
| 2026-04-25 22:12 | 47.88700 | -122.21607 | 15154 ft | 321 kts | 18° |
| 2026-04-25 22:12 | 47.90860 | -122.20588 | 16046 ft | 331 kts | 18° |
| 2026-04-25 22:12 | 47.93046 | -122.19453 | 16926 ft | 340 kts | 24° |
| 2026-04-25 22:12 | 47.94459 | -122.18298 | 17450 ft | 349 kts | 32° |
| 2026-04-25 22:13 | 47.97053 | -122.15305 | 18373 ft | 362 kts | 37° |
| 2026-04-25 22:13 | 47.99009 | -122.12932 | 19045 ft | 366 kts | 37° |
| 2026-04-25 22:13 | 48.00990 | -122.10522 | 19708 ft | 371 kts | 37° |
| 2026-04-25 22:13 | 48.03003 | -122.08070 | 20374 ft | 375 kts | 38° |
| 2026-04-25 22:14 | 48.05016 | -122.05616 | 21033 ft | 381 kts | 38° |
| 2026-04-25 22:14 | 48.07075 | -122.03104 | 21697 ft | 386 kts | 38° |
| 2026-04-25 22:14 | 48.09169 | -122.00545 | 22370 ft | 390 kts | 38° |
| 2026-04-25 22:14 | 48.11261 | -121.97987 | 23036 ft | 397 kts | 38° |
| 2026-04-25 22:15 | 48.13413 | -121.95352 | 23720 ft | 400 kts | 38° |
| 2026-04-25 22:15 | 48.15557 | -121.92725 | 24438 ft | 407 kts | 38° |
| 2026-04-25 22:15 | 48.17759 | -121.90022 | 25173 ft | 410 kts | 38° |
| 2026-04-25 22:16 | 48.22206 | -121.84556 | 26618 ft | 420 kts | 38° |
| 2026-04-25 22:16 | 48.24471 | -121.81767 | 27341 ft | 424 kts | 38° |
| 2026-04-25 22:16 | 48.26759 | -121.78945 | 28066 ft | 429 kts | 38° |
| 2026-04-25 22:16 | 48.29082 | -121.76078 | 28794 ft | 435 kts | 39° |
| 2026-04-25 22:17 | 48.31421 | -121.73187 | 29521 ft | 438 kts | 39° |
| 2026-04-25 22:17 | 48.33796 | -121.70248 | 30251 ft | 442 kts | 39° |
| 2026-04-25 22:17 | 48.36139 | -121.67345 | 30967 ft | 446 kts | 39° |
| 2026-04-25 22:17 | 48.38535 | -121.64372 | 31632 ft | 450 kts | 39° |
| 2026-04-25 22:18 | 48.40958 | -121.61362 | 32301 ft | 453 kts | 38° |
| 2026-04-25 22:18 | 48.43401 | -121.58324 | 32964 ft | 456 kts | 38° |
| 2026-04-25 22:18 | 48.45823 | -121.55307 | 33573 ft | 457 kts | 38° |
| 2026-04-25 22:18 | 48.48271 | -121.52254 | 34132 ft | 459 kts | 38° |
| 2026-04-25 22:19 | 48.50715 | -121.49203 | 34687 ft | 459 kts | 38° |
| 2026-04-25 22:19 | 48.53155 | -121.46152 | 35169 ft | 459 kts | 38° |
| 2026-04-25 22:19 | 48.55605 | -121.43085 | 35640 ft | 459 kts | 38° |
| 2026-04-25 22:19 | 48.58044 | -121.40028 | 36106 ft | 459 kts | 38° |
| 2026-04-25 22:20 | 48.60477 | -121.36974 | 36576 ft | 458 kts | 38° |
| 2026-04-25 22:20 | 48.62908 | -121.33920 | 37073 ft | 455 kts | 39° |
| 2026-04-25 22:20 | 48.65335 | -121.30865 | 37568 ft | 452 kts | 39° |
| 2026-04-25 22:20 | 48.67732 | -121.27846 | 38051 ft | 447 kts | 39° |
| 2026-04-25 22:21 | 48.70099 | -121.24859 | 38568 ft | 442 kts | 39° |
| 2026-04-25 22:21 | 48.72414 | -121.21935 | 39184 ft | 435 kts | 39° |
| 2026-04-25 22:21 | 48.74702 | -121.19040 | 39803 ft | 425 kts | 39° |
| 2026-04-25 22:21 | 48.76956 | -121.16187 | 40423 ft | 414 kts | 39° |
| 2026-04-25 22:22 | 48.79119 | -121.13443 | 40817 ft | 409 kts | 39° |
| 2026-04-25 22:22 | 48.83488 | -121.07895 | 40899 ft | 414 kts | 39° |
| 2026-04-25 22:23 | 48.87930 | -121.02242 | 40905 ft | 421 kts | 39° |
| 2026-04-25 22:23 | 48.92469 | -120.96452 | 40900 ft | 429 kts | 39° |
| 2026-04-25 22:24 | 48.97065 | -120.90575 | 40893 ft | 438 kts | 39° |
| 2026-04-25 22:24 | 49.01464 | -120.84935 | 40892 ft | 446 kts | 39° |